Emmanuel — WDE6384 — position and weather

sailwx.info

Track history (hours):
 
Tides and Currents Weather Stations Pressure Air Temp Water Temp Dewpoint Dewpoint Depression Visibility Wind Speed Wind Dir Waves Ship Positions

Emmanuel

Owner: Marquette Transportation Company Gulf-Inland, LLC, Jefferson, LA. More information available from US FCC via Universal Licensing System and Coast Guard Vessel Documentation Center.

Last reported at 2018-Feb-24 15:27 UTC. Time now 2018-Feb-24 15:41 UTC.
Position N 29°36' W 094°22'.

Length 205 m; draft 2.9 m.

Type: Towing. MMSI: 367379540.

Date/timePositionNaut miles runAvg speedWind from/ knotsBaromVisibWave heightAir tempDewpointWater temp
2018-Feb-24 15:27N 29°36' W 094°22'11 0.4
2018-Feb-23 12:28N 29°30' W 094°32'0 0.0
2018-Feb-23 10:13N 29°30' W 094°32'0 0.0
2018-Feb-23 09:22N 29°30' W 094°32'0 0.0
2018-Feb-23 08:55N 29°30' W 094°32'0 0.0
2018-Feb-23 08:26N 29°30' W 094°32'0 0.0
2018-Feb-23 07:58N 29°30' W 094°32'0 0.0
2018-Feb-23 07:28N 29°30' W 094°32'17 2.0
2018-Feb-22 23:13N 29°29' W 094°52'1 5.6
2018-Feb-22 23:00N 29°30' W 094°52'3 5.6
2018-Feb-22 22:30N 29°32' W 094°54'3 5.6
2018-Feb-22 21:59N 29°35' W 094°56'3 5.7
2018-Feb-22 21:30N 29°37' W 094°57'3 5.7
2018-Feb-22 21:00N 29°40' W 094°58'3 5.5
2018-Feb-22 20:30N 29°42' W 095°00'3 4.8
2018-Feb-22 19:55N 29°44' W 095°03'3 0.1
2018-Feb-21 22:10N 29°46' W 095°05'28 1.7
2018-Feb-21 06:16N 29°25' W 094°44'0 0.0
2018-Feb-21 05:55N 29°25' W 094°44'0 0.0
2018-Feb-21 03:58N 29°25' W 094°44'0 0.0
2018-Feb-21 03:16N 29°25' W 094°44'0 0.0
2018-Feb-21 02:53N 29°25' W 094°44'0 0.0
2018-Feb-21 02:26N 29°25' W 094°44'3 0.8
2018-Feb-20 22:26N 29°27' W 094°42'2 3.7
2018-Feb-20 21:59N 29°28' W 094°40'7 3.4
2018-Feb-20 20:02N 29°30' W 094°33'0 3.4
2018-Feb-20 19:55N 29°30' W 094°32'4 1.5
2018-Feb-20 17:22N 29°32' W 094°29'1 1.5
2018-Feb-20 16:57N 29°33' W 094°28'1 1.1
2018-Feb-20 15:41N 29°34' W 094°27'0 0.0
2018-Feb-20 14:21N 29°34' W 094°27'0 0.0
2018-Feb-20 13:57N 29°34' W 094°27'0 0.0
2018-Feb-20 13:30N 29°34' W 094°27'0 0.0
2018-Feb-20 13:00N 29°34' W 094°27'0 0.0
2018-Feb-20 12:30N 29°34' W 094°27'0 0.0
2018-Feb-20 12:00N 29°34' W 094°27'0 0.0
2018-Feb-20 11:27N 29°34' W 094°27'0 0.0
2018-Feb-20 11:00N 29°34' W 094°27'0 0.0
2018-Feb-20 10:30N 29°34' W 094°27'0 0.0
2018-Feb-20 10:00N 29°34' W 094°27'0 0.1
2018-Feb-20 09:29N 29°34' W 094°27'0 0.8
2018-Feb-20 09:00N 29°34' W 094°27'2 2.9
2018-Feb-20 08:28N 29°34' W 094°25'2 3.2
2018-Feb-20 08:00N 29°36' W 094°25'2 2.7
2018-Feb-20 07:26N 29°36' W 094°23'1 1.9
2018-Feb-20 06:59N 29°36' W 094°22'0 0.1
2018-Feb-20 06:30N 29°36' W 094°22'0 0.0
2018-Feb-20 06:00N 29°36' W 094°22'0 0.0
2018-Feb-20 05:29N 29°36' W 094°22'0 0.2
2018-Feb-20 04:58N 29°36' W 094°22'0 0.0
2018-Feb-20 04:27N 29°36' W 094°22'0 0.8
2018-Feb-20 04:00N 29°36' W 094°22'2 3.9
2018-Feb-20 03:28N 29°37' W 094°20'2 4.8
2018-Feb-20 03:00N 29°38' W 094°18'0 0.6
2018-Feb-20 02:30N 29°38' W 094°17'0 0.2
2018-Feb-20 02:00N 29°38' W 094°17'2 3.1
2018-Feb-20 01:30N 29°39' W 094°16'1 2.2
2018-Feb-20 01:00N 29°40' W 094°15'3 5.0
2018-Feb-20 00:30N 29°41' W 094°12'3 5.0
2018-Feb-20 00:00N 29°42' W 094°09'2 4.5
2018-Feb-19 23:30N 29°43' W 094°07'1 3.0
2018-Feb-19 23:00N 29°44' W 094°06'2 4.6
2018-Feb-19 22:30N 29°45' W 094°04'2 4.9
2018-Feb-19 22:00N 29°47' W 094°02'2 4.0
2018-Feb-19 21:30N 29°48' W 094°00'2 3.1
2018-Feb-19 21:00N 29°49' W 093°59'2 3.7
2018-Feb-19 20:30N 29°51' W 093°57'1 2.9
2018-Feb-19 20:00N 29°52' W 093°56'2 3.2
2018-Feb-19 19:30N 29°53' W 093°55'3 5.3
2018-Feb-19 19:00N 29°55' W 093°53'3 6.1
2018-Feb-19 18:30N 29°58' W 093°51'2 3.5
2018-Feb-19 18:00N 29°59' W 093°50'3 5.1
2018-Feb-19 17:30N 29°60' W 093°47'2 4.9
2018-Feb-19 17:00N 30°01' W 093°45'2 4.5
2018-Feb-19 16:30N 30°03' W 093°43'2 4.1
2018-Feb-19 16:00N 30°04' W 093°41'2 4.2
2018-Feb-19 15:28N 30°04' W 093°39'2 4.0
2018-Feb-19 14:57N 30°04' W 093°36'2 3.4
2018-Feb-19 14:28N 30°04' W 093°34'2 4.3
2018-Feb-19 13:55N 30°04' W 093°31'2 4.5
2018-Feb-19 13:30N 30°04' W 093°29'2 4.4
2018-Feb-19 13:00N 30°04' W 093°27'2 4.1
2018-Feb-19 12:30N 30°04' W 093°24'2 3.4
2018-Feb-19 12:00N 30°04' W 093°22'1 1.1
2018-Feb-19 11:30N 30°04' W 093°22'0 0.0
2018-Feb-19 11:00N 30°04' W 093°22'0 0.1
2018-Feb-19 10:30N 30°04' W 093°22'0 0.0
2018-Feb-19 10:00N 30°04' W 093°22'0 0.0
2018-Feb-19 09:29N 30°04' W 093°22'0 0.0
2018-Feb-19 09:00N 30°04' W 093°22'0 0.0
2018-Feb-19 08:30N 30°04' W 093°22'0 0.0
2018-Feb-19 08:00N 30°04' W 093°22'0 0.0
2018-Feb-19 07:30N 30°04' W 093°22'0 0.0
2018-Feb-19 07:00N 30°04' W 093°22'0 0.0
2018-Feb-19 06:30N 30°04' W 093°22'0 0.0
2018-Feb-19 06:00N 30°04' W 093°22'0 0.0
2018-Feb-19 05:30N 30°04' W 093°22'0 0.0
2018-Feb-19 05:00N 30°04' W 093°22'0 0.0
2018-Feb-19 04:30N 30°04' W 093°22'0 0.0
2018-Feb-19 04:00N 30°04' W 093°22'0 0.0
2018-Feb-19 03:30N 30°04' W 093°22'0 0.0
2018-Feb-19 03:00N 30°04' W 093°22'0 0.0
2018-Feb-19 02:30N 30°04' W 093°22'0 0.0
2018-Feb-19 02:00N 30°04' W 093°22'0 0.0
2018-Feb-19 01:30N 30°04' W 093°22'0 0.1
2018-Feb-19 01:00N 30°04' W 093°22'0 0.2
2018-Feb-19 00:30N 30°04' W 093°22'0 0.1
2018-Feb-19 00:00N 30°04' W 093°22'0 0.1
2018-Feb-18 23:30N 30°04' W 093°22'0 0.2
2018-Feb-18 23:00N 30°04' W 093°22'0 0.0
2018-Feb-18 22:30N 30°04' W 093°22'0 0.0
2018-Feb-18 22:00N 30°04' W 093°22'0 0.1
2018-Feb-18 21:30N 30°04' W 093°22'0 0.1
2018-Feb-18 21:00N 30°04' W 093°22'0 0.2
2018-Feb-18 20:30N 30°04' W 093°22'2 3.0
2018-Feb-18 20:00N 30°05' W 093°20'3 5.5
2018-Feb-18 19:30N 30°07' W 093°18'1 1.6
2018-Feb-18 19:00N 30°06' W 093°17'1 2.6
2018-Feb-18 18:30N 30°06' W 093°19'2 3.8
2018-Feb-18 18:00N 30°05' W 093°20'1 2.9
2018-Feb-18 17:30N 30°04' W 093°21'1 1.3
2018-Feb-18 17:00N 30°04' W 093°22'0 0.0
2018-Feb-18 16:30N 30°04' W 093°22'0 0.3
2018-Feb-18 16:00N 30°04' W 093°22'0 0.3
2018-Feb-18 15:30N 30°04' W 093°22'0 0.5
2018-Feb-18 15:00N 30°04' W 093°22'1 1.0
2018-Feb-18 14:30N 30°04' W 093°21'0 0.1
2018-Feb-18 14:00N 30°04' W 093°21'0 0.1
2018-Feb-18 13:30N 30°04' W 093°21'0 0.1
2018-Feb-18 13:00N 30°04' W 093°21'0 0.2
2018-Feb-18 12:30N 30°04' W 093°21'0 0.0
2018-Feb-18 12:00N 30°04' W 093°21'0 0.4
2018-Feb-18 11:30N 30°04' W 093°21'1 2.1
2018-Feb-18 11:00N 30°05' W 093°20'2 3.6
2018-Feb-18 10:30N 30°06' W 093°19'0 0.2
2018-Feb-18 10:00N 30°06' W 093°19'0 0.1
2018-Feb-18 09:30N 30°06' W 093°19'0 0.0
2018-Feb-18 09:00N 30°06' W 093°19'0 0.1
2018-Feb-18 08:30N 30°06' W 093°19'0 0.2
2018-Feb-18 08:00N 30°06' W 093°19'0 0.1
2018-Feb-18 07:30N 30°06' W 093°19'0 0.2
2018-Feb-18 07:00N 30°06' W 093°19'0 0.8
2018-Feb-18 06:30N 30°06' W 093°19'1 2.5
2018-Feb-18 06:00N 30°05' W 093°18'1 1.5
2018-Feb-18 05:30N 30°05' W 093°17'1 2.6
2018-Feb-18 05:00N 30°04' W 093°16'0 0.1
2018-Feb-18 04:30N 30°04' W 093°16'0 0.0
2018-Feb-18 04:00N 30°04' W 093°16'0 0.0
2018-Feb-18 03:30N 30°04' W 093°16'0 0.0
2018-Feb-18 03:00N 30°04' W 093°16'0 0.0
2018-Feb-18 02:30N 30°04' W 093°16'0 0.0
2018-Feb-18 02:00N 30°04' W 093°16'0 0.0
2018-Feb-18 01:30N 30°04' W 093°16'1 2.1
2018-Feb-18 01:00N 30°03' W 093°16'2 3.9
2018-Feb-18 00:30N 30°01' W 093°14'2 4.2
2018-Feb-18 00:00N 29°60' W 093°13'2 4.7
2018-Feb-17 23:30N 29°58' W 093°11'2 4.6
2018-Feb-17 23:00N 29°56' W 093°09'1 2.4
2018-Feb-17 22:30N 29°56' W 093°08'2 4.3
2018-Feb-17 21:59N 29°56' W 093°05'38 2.0
2018-Feb-17 03:03N 29°51' W 092°22'0 3.6
2018-Feb-17 03:00N 29°51' W 092°22'2 3.5
2018-Feb-17 02:30N 29°50' W 092°20'2 3.5
2018-Feb-17 02:00N 29°50' W 092°18'2 3.6
2018-Feb-17 01:30N 29°49' W 092°16'2 3.4
2018-Feb-17 01:00N 29°48' W 092°14'2 3.5
2018-Feb-17 00:30N 29°47' W 092°13'1 2.5
2018-Feb-17 00:00N 29°47' W 092°11'1 2.3
2018-Feb-16 23:30N 29°47' W 092°10'2 3.9
2018-Feb-16 23:00N 29°47' W 092°08'2 3.9
2018-Feb-16 22:30N 29°48' W 092°06'2 3.8
2018-Feb-16 22:00N 29°49' W 092°04'2 3.7
2018-Feb-16 21:30N 29°49' W 092°02'  
Track history (hours):
 
Tides and Currents Weather Stations Pressure Air Temp Water Temp Dewpoint Dewpoint Depression Visibility Wind Speed Wind Dir Waves Ship Positions

Emmanuel

Owner: Marquette Transportation Company Gulf-Inland, LLC, Jefferson, LA. More information available from US FCC via Universal Licensing System and Coast Guard Vessel Documentation Center.

Last reported at 2018-Feb-24 15:27 UTC. Time now 2018-Feb-24 15:41 UTC.
Position N 29°36' W 094°22'.

Length 205 m; draft 2.9 m.

Type: Towing. MMSI: 367379540.

Date/timePositionNaut miles runAvg speedWind from/ knotsBaromVisibWave heightAir tempDewpointWater temp
2018-Feb-24 15:27N 29°36' W 094°22'11 0.4
2018-Feb-23 12:28N 29°30' W 094°32'0 0.0
2018-Feb-23 10:13N 29°30' W 094°32'0 0.0
2018-Feb-23 09:22N 29°30' W 094°32'0 0.0
2018-Feb-23 08:55N 29°30' W 094°32'0 0.0
2018-Feb-23 08:26N 29°30' W 094°32'0 0.0
2018-Feb-23 07:58N 29°30' W 094°32'0 0.0
2018-Feb-23 07:28N 29°30' W 094°32'17 2.0
2018-Feb-22 23:13N 29°29' W 094°52'1 5.6
2018-Feb-22 23:00N 29°30' W 094°52'3 5.6
2018-Feb-22 22:30N 29°32' W 094°54'3 5.6
2018-Feb-22 21:59N 29°35' W 094°56'3 5.7
2018-Feb-22 21:30N 29°37' W 094°57'3 5.7
2018-Feb-22 21:00N 29°40' W 094°58'3 5.5
2018-Feb-22 20:30N 29°42' W 095°00'3 4.8
2018-Feb-22 19:55N 29°44' W 095°03'3 0.1
2018-Feb-21 22:10N 29°46' W 095°05'28 1.7
2018-Feb-21 06:16N 29°25' W 094°44'0 0.0
2018-Feb-21 05:55N 29°25' W 094°44'0 0.0
2018-Feb-21 03:58N 29°25' W 094°44'0 0.0
2018-Feb-21 03:16N 29°25' W 094°44'0 0.0
2018-Feb-21 02:53N 29°25' W 094°44'0 0.0
2018-Feb-21 02:26N 29°25' W 094°44'3 0.8
2018-Feb-20 22:26N 29°27' W 094°42'2 3.7
2018-Feb-20 21:59N 29°28' W 094°40'7 3.4
2018-Feb-20 20:02N 29°30' W 094°33'0 3.4
2018-Feb-20 19:55N 29°30' W 094°32'4 1.5
2018-Feb-20 17:22N 29°32' W 094°29'1 1.5
2018-Feb-20 16:57N 29°33' W 094°28'1 1.1
2018-Feb-20 15:41N 29°34' W 094°27'0 0.0
2018-Feb-20 14:21N 29°34' W 094°27'0 0.0
2018-Feb-20 13:57N 29°34' W 094°27'0 0.0
2018-Feb-20 13:30N 29°34' W 094°27'0 0.0
2018-Feb-20 13:00N 29°34' W 094°27'0 0.0
2018-Feb-20 12:30N 29°34' W 094°27'0 0.0
2018-Feb-20 12:00N 29°34' W 094°27'0 0.0
2018-Feb-20 11:27N 29°34' W 094°27'0 0.0
2018-Feb-20 11:00N 29°34' W 094°27'0 0.0
2018-Feb-20 10:30N 29°34' W 094°27'0 0.0
2018-Feb-20 10:00N 29°34' W 094°27'0 0.1
2018-Feb-20 09:29N 29°34' W 094°27'0 0.8
2018-Feb-20 09:00N 29°34' W 094°27'2 2.9
2018-Feb-20 08:28N 29°34' W 094°25'2 3.2
2018-Feb-20 08:00N 29°36' W 094°25'2 2.7
2018-Feb-20 07:26N 29°36' W 094°23'1 1.9
2018-Feb-20 06:59N 29°36' W 094°22'0 0.1
2018-Feb-20 06:30N 29°36' W 094°22'0 0.0
2018-Feb-20 06:00N 29°36' W 094°22'0 0.0
2018-Feb-20 05:29N 29°36' W 094°22'0 0.2
2018-Feb-20 04:58N 29°36' W 094°22'0 0.0
2018-Feb-20 04:27N 29°36' W 094°22'0 0.8
2018-Feb-20 04:00N 29°36' W 094°22'2 3.9
2018-Feb-20 03:28N 29°37' W 094°20'2 4.8
2018-Feb-20 03:00N 29°38' W 094°18'0 0.6
2018-Feb-20 02:30N 29°38' W 094°17'0 0.2
2018-Feb-20 02:00N 29°38' W 094°17'2 3.1
2018-Feb-20 01:30N 29°39' W 094°16'1 2.2
2018-Feb-20 01:00N 29°40' W 094°15'3 5.0
2018-Feb-20 00:30N 29°41' W 094°12'3 5.0
2018-Feb-20 00:00N 29°42' W 094°09'2 4.5
2018-Feb-19 23:30N 29°43' W 094°07'1 3.0
2018-Feb-19 23:00N 29°44' W 094°06'2 4.6
2018-Feb-19 22:30N 29°45' W 094°04'2 4.9
2018-Feb-19 22:00N 29°47' W 094°02'2 4.0
2018-Feb-19 21:30N 29°48' W 094°00'2 3.1
2018-Feb-19 21:00N 29°49' W 093°59'2 3.7
2018-Feb-19 20:30N 29°51' W 093°57'1 2.9
2018-Feb-19 20:00N 29°52' W 093°56'2 3.2
2018-Feb-19 19:30N 29°53' W 093°55'3 5.3
2018-Feb-19 19:00N 29°55' W 093°53'3 6.1
2018-Feb-19 18:30N 29°58' W 093°51'2 3.5
2018-Feb-19 18:00N 29°59' W 093°50'3 5.1
2018-Feb-19 17:30N 29°60' W 093°47'2 4.9
2018-Feb-19 17:00N 30°01' W 093°45'2 4.5
2018-Feb-19 16:30N 30°03' W 093°43'2 4.1
2018-Feb-19 16:00N 30°04' W 093°41'2 4.2
2018-Feb-19 15:28N 30°04' W 093°39'2 4.0
2018-Feb-19 14:57N 30°04' W 093°36'2 3.4
2018-Feb-19 14:28N 30°04' W 093°34'2 4.3
2018-Feb-19 13:55N 30°04' W 093°31'2 4.5
2018-Feb-19 13:30N 30°04' W 093°29'2 4.4
2018-Feb-19 13:00N 30°04' W 093°27'2 4.1
2018-Feb-19 12:30N 30°04' W 093°24'2 3.4
2018-Feb-19 12:00N 30°04' W 093°22'1 1.1
2018-Feb-19 11:30N 30°04' W 093°22'0 0.0
2018-Feb-19 11:00N 30°04' W 093°22'0 0.1
2018-Feb-19 10:30N 30°04' W 093°22'0 0.0
2018-Feb-19 10:00N 30°04' W 093°22'0 0.0
2018-Feb-19 09:29N 30°04' W 093°22'0 0.0
2018-Feb-19 09:00N 30°04' W 093°22'0 0.0
2018-Feb-19 08:30N 30°04' W 093°22'0 0.0
2018-Feb-19 08:00N 30°04' W 093°22'0 0.0
2018-Feb-19 07:30N 30°04' W 093°22'0 0.0
2018-Feb-19 07:00N 30°04' W 093°22'0 0.0
2018-Feb-19 06:30N 30°04' W 093°22'0 0.0
2018-Feb-19 06:00N 30°04' W 093°22'0 0.0
2018-Feb-19 05:30N 30°04' W 093°22'0 0.0
2018-Feb-19 05:00N 30°04' W 093°22'0 0.0
2018-Feb-19 04:30N 30°04' W 093°22'0 0.0
2018-Feb-19 04:00N 30°04' W 093°22'0 0.0
2018-Feb-19 03:30N 30°04' W 093°22'0 0.0
2018-Feb-19 03:00N 30°04' W 093°22'0 0.0
2018-Feb-19 02:30N 30°04' W 093°22'0 0.0
2018-Feb-19 02:00N 30°04' W 093°22'0 0.0
2018-Feb-19 01:30N 30°04' W 093°22'0 0.1
2018-Feb-19 01:00N 30°04' W 093°22'0 0.2
2018-Feb-19 00:30N 30°04' W 093°22'0 0.1
2018-Feb-19 00:00N 30°04' W 093°22'0 0.1
2018-Feb-18 23:30N 30°04' W 093°22'0 0.2
2018-Feb-18 23:00N 30°04' W 093°22'0 0.0
2018-Feb-18 22:30N 30°04' W 093°22'0 0.0
2018-Feb-18 22:00N 30°04' W 093°22'0 0.1
2018-Feb-18 21:30N 30°04' W 093°22'0 0.1
2018-Feb-18 21:00N 30°04' W 093°22'0 0.2
2018-Feb-18 20:30N 30°04' W 093°22'2 3.0
2018-Feb-18 20:00N 30°05' W 093°20'3 5.5
2018-Feb-18 19:30N 30°07' W 093°18'1 1.6
2018-Feb-18 19:00N 30°06' W 093°17'1 2.6
2018-Feb-18 18:30N 30°06' W 093°19'2 3.8
2018-Feb-18 18:00N 30°05' W 093°20'1 2.9
2018-Feb-18 17:30N 30°04' W 093°21'1 1.3
2018-Feb-18 17:00N 30°04' W 093°22'0 0.0
2018-Feb-18 16:30N 30°04' W 093°22'0 0.3
2018-Feb-18 16:00N 30°04' W 093°22'0 0.3
2018-Feb-18 15:30N 30°04' W 093°22'0 0.5
2018-Feb-18 15:00N 30°04' W 093°22'1 1.0
2018-Feb-18 14:30N 30°04' W 093°21'0 0.1
2018-Feb-18 14:00N 30°04' W 093°21'0 0.1
2018-Feb-18 13:30N 30°04' W 093°21'0 0.1
2018-Feb-18 13:00N 30°04' W 093°21'0 0.2
2018-Feb-18 12:30N 30°04' W 093°21'0 0.0
2018-Feb-18 12:00N 30°04' W 093°21'0 0.4
2018-Feb-18 11:30N 30°04' W 093°21'1 2.1
2018-Feb-18 11:00N 30°05' W 093°20'2 3.6
2018-Feb-18 10:30N 30°06' W 093°19'0 0.2
2018-Feb-18 10:00N 30°06' W 093°19'0 0.1
2018-Feb-18 09:30N 30°06' W 093°19'0 0.0
2018-Feb-18 09:00N 30°06' W 093°19'0 0.1
2018-Feb-18 08:30N 30°06' W 093°19'0 0.2
2018-Feb-18 08:00N 30°06' W 093°19'0 0.1
2018-Feb-18 07:30N 30°06' W 093°19'0 0.2
2018-Feb-18 07:00N 30°06' W 093°19'0 0.8
2018-Feb-18 06:30N 30°06' W 093°19'1 2.5
2018-Feb-18 06:00N 30°05' W 093°18'1 1.5
2018-Feb-18 05:30N 30°05' W 093°17'1 2.6
2018-Feb-18 05:00N 30°04' W 093°16'0 0.1
2018-Feb-18 04:30N 30°04' W 093°16'0 0.0
2018-Feb-18 04:00N 30°04' W 093°16'0 0.0
2018-Feb-18 03:30N 30°04' W 093°16'0 0.0
2018-Feb-18 03:00N 30°04' W 093°16'0 0.0
2018-Feb-18 02:30N 30°04' W 093°16'0 0.0
2018-Feb-18 02:00N 30°04' W 093°16'0 0.0
2018-Feb-18 01:30N 30°04' W 093°16'1 2.1
2018-Feb-18 01:00N 30°03' W 093°16'2 3.9
2018-Feb-18 00:30N 30°01' W 093°14'2 4.2
2018-Feb-18 00:00N 29°60' W 093°13'2 4.7
2018-Feb-17 23:30N 29°58' W 093°11'2 4.6
2018-Feb-17 23:00N 29°56' W 093°09'1 2.4
2018-Feb-17 22:30N 29°56' W 093°08'2 4.3
2018-Feb-17 21:59N 29°56' W 093°05'38 2.0
2018-Feb-17 03:03N 29°51' W 092°22'0 3.6
2018-Feb-17 03:00N 29°51' W 092°22'2 3.5
2018-Feb-17 02:30N 29°50' W 092°20'2 3.5
2018-Feb-17 02:00N 29°50' W 092°18'2 3.6
2018-Feb-17 01:30N 29°49' W 092°16'2 3.4
2018-Feb-17 01:00N 29°48' W 092°14'2 3.5
2018-Feb-17 00:30N 29°47' W 092°13'1 2.5
2018-Feb-17 00:00N 29°47' W 092°11'1 2.3
2018-Feb-16 23:30N 29°47' W 092°10'2 3.9
2018-Feb-16 23:00N 29°47' W 092°08'2 3.9
2018-Feb-16 22:30N 29°48' W 092°06'2 3.8
2018-Feb-16 22:00N 29°49' W 092°04'2 3.7
2018-Feb-16 21:30N 29°49' W 092°02'  

Dump ship's entire track history